Disclaimer

Please do not use the information listed here in-flight or in-navigation, as they are not provided to us by the airports but are provided by volunteers, so they might be outdated.

Search


Regions


Airport information page

Radio informations:
INFO - 118.9 MHz

Airport informations:
Latitude: 26° 57' 20.64" N
Longitude: 101° 28' 12.49" W
Elevation: 1864 feet - 568 meters
Operating hours: Remarks
Operating agency: Civil government, landing fees and diplomatic clearance may be required
Timezone: UTC-6(-5DT) - First Sunday in April to the last Saturday in October
Fuel: 100/130 octane gasoline, leaded, MIL-L-5572F (GREEN)

Runway information:
06R/24L - 6890 x 148 feet< - >2100 x 45 meters
06L/24R - 4783 x 66 feet< - >1458 x 20 meters

Recent METARs:
MMMV 191440Z 00000KT 5SM BR BKN008 OVC015 11/05 A3016 RMK8/5//
MMMV 191440Z 00000KT 5SM BR BKN008 OVC015 11/05 A3016 RMK8/5//
MMMV 191440Z 00000KT 5SM BR BKN008 OVC015 11/05 A3016 RMK8/5//

Airport on the map: